Terminal Aerodrome Forecast
Issued by NWS Topeka, KS

Home | Current Version | Previous Version | Text Only | Print | Product List | Glossary Off
Versions: 1 2 3 4 5 6 7 8 9 10 11 12 13 14 15 16 17 18 19 20 21 22 23

000
FTUS43 KTOP 240400 AAB
TAFTOP
TAF AMD
KTOP 240412Z 2404/2424 09012G20KT 4SM RA BR BKN012
     FM240700 12008KT P6SM -SHRA BKN008
     FM241500 16009KT 5SM RA BR BKN012
     FM241900 18009KT P6SM BKN035
      TEMPO 2421/2424 4SM -TSRA OVC015CB=

USA.gov is the U.S. government's official web portal to all federal, state and local government web resources and services.